»·PEaware :: N213BK KRNM-KBFL

N213BK :: KRNM-KBFL

FLIGHT INFORMATION

Flight Status: Arrived
Operator: Privately registered:
United States
More flights under this callsign
Pilot: Bradford K. (23688)
Aircraft: SOCATA TBM-900
(TBM9)
More flights by this aircraft type
Origin: KRNM Ramona
United States
Destination: KBFL Meadows
United States
More flights between these airports :: More routes between these airports
Route: ROBNN OCN SLI DARTS LHS FASTO2
File this flight plan on PilotEdge
Remarks:
Altitude:
(Current/Filed)
16,000ft
Speed:
(Current/Filed)
200kts
Departed: 11-Jan-20 08:16 AM
Arrived: 11-Jan-20 09:27 AM
Distance/Time
Traveled:
178nm/1:11
Distance/Time
To Go:
Arrived

Flight Plot

Page will automatically refresh every two minutes.

Flight plan parsing failed; only flown route is shown


Map Options




Map Legend


Flown Route
Filed Route
Departure Airport
Arrival Airport
Navaid (VOR, NDB)
Fix

Horizontal Profiles

Position Reports

Time Latitude Longitude Heading Altitude Ground
Speed
11-Jan-20 08:04 33.037223 -116.910140 188 1391ft 0kts
11-Jan-20 08:05 33.037223 -116.910140 188 1391ft 0kts
11-Jan-20 08:06 33.037211 -116.910143 187 1391ft 0kts
11-Jan-20 08:07 33.037211 -116.910143 187 1391ft 0kts
11-Jan-20 08:08 33.037211 -116.910143 187 1391ft 0kts
11-Jan-20 08:09 33.037211 -116.910143 187 1391ft 0kts
11-Jan-20 08:10 33.037211 -116.910143 187 1391ft 0kts
11-Jan-20 08:10 33.037211 -116.910143 187 1391ft 0kts
11-Jan-20 08:12 33.037211 -116.910143 187 1391ft 0kts
11-Jan-20 08:13 33.037211 -116.910143 187 1391ft 0kts
11-Jan-20 08:14 33.037254 -116.908068 101 1387ft 0kts
11-Jan-20 08:15 33.037382 -116.907449 10 1386ft 0kts
11-Jan-20 08:15 33.038817 -116.912898 279 1391ft 94kts
11-Jan-20 08:17 33.044474 -116.961387 294 3064ft 144kts
11-Jan-20 08:17 33.066965 -116.993626 313 4559ft 160kts
11-Jan-20 08:18 33.103664 -117.025410 322 6380ft 165kts
11-Jan-20 08:20 33.130117 -117.075867 290 8722ft 157kts
11-Jan-20 08:20 33.143203 -117.115913 290 10011ft 167kts
11-Jan-20 08:21 33.162987 -117.176993 290 10004ft 215kts
11-Jan-20 08:22 33.185170 -117.245565 290 9993ft 226kts
11-Jan-20 08:23 33.207769 -117.315581 290 9999ft 228kts
11-Jan-20 08:24 33.230150 -117.385091 290 9993ft 216kts
11-Jan-20 08:25 33.262008 -117.442563 313 9996ft 210kts
11-Jan-20 08:26 33.303877 -117.491341 312 9996ft 209kts
11-Jan-20 08:27 33.345138 -117.539461 312 10202ft 199kts
11-Jan-20 08:28 33.378883 -117.578761 310 12062ft 157kts
11-Jan-20 08:29 33.411577 -117.617163 310 13030ft 189kts
11-Jan-20 08:30 33.452219 -117.664754 310 13014ft 212kts
11-Jan-20 08:31 33.493736 -117.713383 310 13000ft 207kts
11-Jan-20 08:32 33.534618 -117.761359 310 13001ft 205kts
11-Jan-20 08:33 33.575132 -117.808986 310 13001ft 204kts
11-Jan-20 08:34 33.615079 -117.856020 310 13003ft 204kts
11-Jan-20 08:35 33.654967 -117.903039 310 12998ft 204kts
11-Jan-20 08:36 33.694207 -117.949306 309 13478ft 184kts
11-Jan-20 08:37 33.729385 -117.990936 309 14008ft 186kts
11-Jan-20 08:38 33.767361 -118.035877 309 14343ft 190kts
11-Jan-20 08:39 33.807979 -118.068814 324 16004ft 182kts
11-Jan-20 08:40 33.859431 -118.098524 326 16005ft 223kts
11-Jan-20 08:41 33.916731 -118.131447 327 15997ft 233kts
11-Jan-20 08:42 33.972907 -118.163762 326 15996ft 217kts
11-Jan-20 08:43 34.026546 -118.194699 326 15987ft 212kts
11-Jan-20 08:44 34.079375 -118.225244 326 15997ft 210kts
11-Jan-20 08:45 34.132100 -118.255722 325 15995ft 212kts
11-Jan-20 08:46 34.186406 -118.287183 326 15991ft 221kts
11-Jan-20 08:47 34.241945 -118.319415 326 15987ft 223kts
11-Jan-20 08:48 34.297741 -118.351810 326 16015ft 223kts
11-Jan-20 08:49 34.353607 -118.384322 326 16011ft 224kts
11-Jan-20 08:50 34.409644 -118.416977 326 16011ft 223kts
11-Jan-20 08:51 34.465267 -118.449431 326 16008ft 223kts
11-Jan-20 08:52 34.521276 -118.482170 326 16010ft 224kts
11-Jan-20 08:53 34.577182 -118.514882 326 15972ft 224kts
11-Jan-20 08:54 34.633177 -118.547701 326 15963ft 222kts
11-Jan-20 08:55 34.687687 -118.581859 313 15953ft 215kts
11-Jan-20 08:56 34.733257 -118.628078 313 15974ft 214kts
11-Jan-20 08:57 34.780184 -118.675956 313 15191ft 239kts
11-Jan-20 08:58 34.831020 -118.727742 314 13710ft 238kts
11-Jan-20 08:59 34.881298 -118.779123 314 12221ft 236kts
11-Jan-20 09:00 34.931529 -118.830600 315 10720ft 239kts
11-Jan-20 09:01 34.990596 -118.861317 352 9975ft 240kts
11-Jan-20 09:02 35.053174 -118.861360 352 9964ft 214kts
11-Jan-20 09:03 35.110965 -118.861382 351 10056ft 206kts
11-Jan-20 09:04 35.168286 -118.861403 351 10038ft 206kts
11-Jan-20 09:05 35.222124 -118.870563 301 9946ft 191kts
11-Jan-20 09:06 35.225661 -118.944981 272 8058ft 241kts
11-Jan-20 09:07 35.199286 -119.019300 210 6024ft 267kts
11-Jan-20 09:08 35.154059 -118.970442 70 3987ft 267kts
11-Jan-20 09:09 35.200429 -118.922583 31 3015ft 190kts
11-Jan-20 09:10 35.240036 -118.889017 32 3000ft 152kts
11-Jan-20 09:11 35.270485 -118.874339 341 3098ft 107kts
11-Jan-20 09:12 35.300805 -118.884780 342 3026ft 116kts
11-Jan-20 09:13 35.331261 -118.895173 341 3039ft 113kts
11-Jan-20 09:14 35.361814 -118.905634 341 3035ft 112kts
11-Jan-20 09:15 35.385165 -118.922468 267 3038ft 101kts
11-Jan-20 09:16 35.358496 -118.929206 172 3066ft 128kts
11-Jan-20 09:17 35.322061 -118.921827 171 3046ft 134kts
11-Jan-20 09:18 35.284966 -118.913557 154 3028ft 137kts
11-Jan-20 09:19 35.293808 -118.886472 334 3037ft 122kts
11-Jan-20 09:20 35.317471 -118.916169 312 3041ft 122kts
11-Jan-20 09:21 35.341431 -118.946141 312 3042ft 123kts
11-Jan-20 09:22 35.366608 -118.975356 314 2988ft 123kts
11-Jan-20 09:23 35.390288 -119.005006 314 2586ft 114kts
11-Jan-20 09:24 35.414515 -119.032532 316 1137ft 128kts
11-Jan-20 09:25 35.435137 -119.057716 317 487ft 57kts
11-Jan-20 09:26 35.433439 -119.053470 135 492ft 36kts
11-Jan-20 09:27 35.429540 -119.046770 68 493ft 3kts
11-Jan-20 09:28 35.429462 -119.046545 133 493ft 0kts

Navigation Log

Ident Type
Flight plan parsing failed, navigation log unavailable